Time;durP1;ratioP1;P1;durP2;ratioP2;P2;SDS_P1;SDS_P2;PMS_P1;PMS_P2;Temp;Humidity;BMP_temperature;BMP_pressure;BME280_temperature;BME280_humidity;BME280_pressure;Samples;Min_cycle;Max_cycle;Signal;HPM_P1;HPM_P2
2023/08/16 00:02:07;;;;;;;8.65;6.10;;;15.20;99.90;;;;;;4988939;28;20124;-58
2023/08/16 00:04:33;;;;;;;9.00;5.80;;;15.20;99.90;;;;;;4988904;28;20034;-59
2023/08/16 00:06:59;;;;;;;8.82;6.50;;;15.20;99.90;;;;;;4988466;28;20141;-58
2023/08/16 00:09:25;;;;;;;10.27;6.78;;;15.20;99.90;;;;;;4987650;28;20153;-58
2023/08/16 00:11:51;;;;;;;11.52;7.07;;;15.20;99.90;;;;;;4988555;28;20046;-59
2023/08/16 00:14:18;;;;;;;8.65;5.78;;;15.20;99.90;;;;;;4970158;28;20038;-59
2023/08/16 00:16:44;;;;;;;11.13;6.72;;;15.10;99.90;;;;;;4987596;28;20054;-58
2023/08/16 00:19:10;;;;;;;10.07;6.40;;;15.20;99.90;;;;;;4988647;28;20057;-59
2023/08/16 00:21:35;;;;;;;9.45;6.43;;;15.20;99.90;;;;;;4988370;28;20101;-59
2023/08/16 00:24:01;;;;;;;8.88;6.88;;;15.20;99.90;;;;;;4987570;28;20100;-59
2023/08/16 00:26:27;;;;;;;13.38;6.90;;;15.30;99.90;;;;;;4988265;28;20476;-59
2023/08/16 00:28:53;;;;;;;10.98;7.07;;;15.30;99.90;;;;;;4988428;28;20058;-59
2023/08/16 00:31:19;;;;;;;9.48;6.80;;;15.40;99.90;;;;;;4988351;28;20121;-59
2023/08/16 00:33:45;;;;;;;11.05;6.45;;;15.50;99.90;;;;;;4987561;28;20125;-59
2023/08/16 00:36:10;;;;;;;11.30;7.07;;;15.50;99.90;;;;;;4987867;28;20046;-59
2023/08/16 00:38:42;;;;;;;11.88;7.32;;;15.50;99.90;;;;;;4985790;28;20438;-58
2023/08/16 00:41:14;;;;;;;11.52;7.30;;;15.50;99.90;;;;;;4987579;28;20051;-58
2023/08/16 00:43:39;;;;;;;11.98;8.13;;;15.50;99.90;;;;;;4988015;28;20042;-58
2023/08/16 00:46:11;;;;;;;12.10;9.15;;;15.50;99.90;;;;;;4987635;28;20068;-59
2023/08/16 00:48:40;;;;;;;14.65;9.00;;;15.40;99.90;;;;;;4987259;28;20184;-59
2023/08/16 00:51:06;;;;;;;13.32;8.77;;;15.30;99.90;;;;;;4987633;28;20049;-59
2023/08/16 00:53:32;;;;;;;13.30;9.15;;;15.30;99.90;;;;;;4987001;28;20099;-60
2023/08/16 00:55:59;;;;;;;12.20;8.15;;;15.30;99.90;;;;;;4981687;28;20047;-58
2023/08/16 00:58:27;;;;;;;13.90;8.82;;;15.30;99.90;;;;;;4975798;28;20046;-58
2023/08/16 01:00:53;;;;;;;11.88;8.23;;;15.40;99.90;;;;;;4967467;28;20679;-59
2023/08/16 01:03:19;;;;;;;13.45;8.25;;;15.30;99.90;;;;;;4985458;28;20051;-59
2023/08/16 01:05:45;;;;;;;13.77;9.07;;;15.40;99.90;;;;;;4988031;28;20043;-59
2023/08/16 01:08:11;;;;;;;15.43;9.82;;;15.30;99.90;;;;;;5078567;22;20153;-59
2023/08/16 01:11:01;;;;;;;10.80;8.98;;;15.20;99.90;;;;;;5002584;28;20501;-59
2023/08/16 01:13:42;;;;;;;11.02;9.15;;;15.20;99.90;;;;;;5009890;28;20053;-58
2023/08/16 01:16:09;;;;;;;13.30;9.63;;;15.20;99.90;;;;;;5010443;28;20679;-58
2023/08/16 01:18:40;;;;;;;11.82;9.23;;;15.10;99.90;;;;;;5007032;28;20049;-59
2023/08/16 01:21:08;;;;;;;12.02;9.18;;;15.10;99.90;;;;;;5006620;28;20132;-56
2023/08/16 01:23:42;;;;;;;14.40;9.23;;;15.10;99.90;;;;;;5005415;28;20042;-59
2023/08/16 01:26:33;;;;;;;12.13;9.47;;;15.10;99.90;;;;;;5021438;28;20096;-58
2023/08/16 01:29:00;;;;;;;12.45;8.45;;;15.20;99.90;;;;;;5024926;28;20053;-58
2023/08/16 01:31:26;;;;;;;11.13;8.48;;;15.30;99.90;;;;;;5026088;28;20566;-58
2023/08/16 01:33:52;;;;;;;11.55;8.30;;;15.40;99.90;;;;;;5007708;28;20061;-58
2023/08/16 01:36:18;;;;;;;10.93;8.10;;;15.30;99.90;;;;;;5008408;28;20052;-59
2023/08/16 01:38:44;;;;;;;9.60;7.70;;;15.50;99.90;;;;;;5024665;28;20484;-58
2023/08/16 01:41:20;;;;;;;9.88;7.53;;;15.40;99.90;;;;;;5026302;28;20111;-58
2023/08/16 01:43:47;;;;;;;12.43;7.85;;;15.30;99.90;;;;;;5024977;28;20128;-58
2023/08/16 01:46:14;;;;;;;11.45;7.75;;;15.30;99.90;;;;;;5025501;28;20072;-58
2023/08/16 01:48:41;;;;;;;11.10;8.35;;;15.20;99.90;;;;;;5025430;28;20045;-60
2023/08/16 01:51:07;;;;;;;12.75;8.32;;;15.20;99.90;;;;;;5024964;28;20068;-58
2023/08/16 01:53:34;;;;;;;10.10;8.30;;;15.10;99.90;;;;;;5008795;28;20484;-59
2023/08/16 01:56:00;;;;;;;13.07;8.80;;;15.10;99.90;;;;;;5004720;28;20555;-58
2023/08/16 01:58:25;;;;;;;11.85;8.68;;;15.00;99.90;;;;;;5005886;28;20041;-58
2023/08/16 02:00:51;;;;;;;15.98;9.48;;;15.10;99.90;;;;;;5004771;28;20427;-58
2023/08/16 02:03:16;;;;;;;11.57;8.93;;;14.90;99.90;;;;;;5006204;28;20096;-58
2023/08/16 02:05:42;;;;;;;10.65;8.93;;;14.80;99.90;;;;;;5023679;28;20037;-58
2023/08/16 02:08:10;;;;;;;12.18;9.00;;;14.80;99.90;;;;;;5017871;28;20444;-58
2023/08/16 02:10:36;;;;;;;11.82;8.70;;;14.80;99.90;;;;;;5018614;28;20037;-58
2023/08/16 02:13:02;;;;;;;11.55;8.85;;;14.90;99.90;;;;;;5024831;28;20064;-58
2023/08/16 02:15:28;;;;;;;10.65;9.27;;;14.70;99.90;;;;;;5025506;28;20041;-59
2023/08/16 02:17:54;;;;;;;11.45;8.82;;;14.60;99.90;;;;;;5025487;28;20148;-58
2023/08/16 02:20:20;;;;;;;16.45;9.68;;;14.70;99.90;;;;;;5025824;28;20049;-58
2023/08/16 02:22:45;;;;;;;15.95;9.32;;;14.70;99.90;;;;;;5023733;28;20079;-58
2023/08/16 02:25:14;;;;;;;13.40;9.77;;;14.60;99.90;;;;;;5017220;28;20467;-58
2023/08/16 02:27:40;;;;;;;12.23;9.32;;;14.50;99.90;;;;;;5015820;28;20045;-59
2023/08/16 02:30:06;;;;;;;14.63;9.82;;;14.40;99.90;;;;;;5025995;28;20037;-57
2023/08/16 02:32:36;;;;;;;11.82;10.18;;;14.30;99.90;;;;;;5025019;28;20053;-58
2023/08/16 02:35:03;;;;;;;12.07;10.10;;;14.20;99.90;;;;;;5025366;28;20086;-58
2023/08/16 02:37:30;;;;;;;12.43;9.75;;;14.20;99.90;;;;;;5023926;28;20049;-58
2023/08/16 02:39:55;;;;;;;12.20;9.73;;;14.20;99.90;;;;;;5018211;28;20034;-59
2023/08/16 02:42:21;;;;;;;15.40;9.90;;;14.20;99.90;;;;;;5004077;28;21090;-58
2023/08/16 02:44:47;;;;;;;13.00;10.00;;;14.20;99.90;;;;;;5005487;28;20034;-58
2023/08/16 02:47:13;;;;;;;11.70;10.00;;;14.10;99.90;;;;;;5005622;28;20045;-58
2023/08/16 02:49:38;;;;;;;16.92;9.95;;;14.20;99.90;;;;;;5005164;28;20068;-59
2023/08/16 02:52:04;;;;;;;12.30;10.32;;;14.10;99.90;;;;;;5004521;28;20107;-59
2023/08/16 02:54:29;;;;;;;11.80;10.02;;;14.00;99.90;;;;;;5019716;28;20586;-58
2023/08/16 02:56:55;;;;;;;11.48;9.40;;;13.90;99.90;;;;;;5007226;28;20046;-59
2023/08/16 02:59:21;;;;;;;16.67;10.73;;;14.10;99.90;;;;;;5005081;28;20045;-57
2023/08/16 03:01:46;;;;;;;13.48;10.60;;;13.80;99.90;;;;;;5005500;28;20042;-58
2023/08/16 03:04:12;;;;;;;11.82;10.35;;;13.80;99.90;;;;;;5003560;28;20057;-58
2023/08/16 03:06:37;;;;;;;13.07;10.10;;;13.80;99.90;;;;;;5004926;28;20045;-59
2023/08/16 03:09:04;;;;;;;12.43;9.80;;;13.80;99.90;;;;;;5023285;28;20053;-57
2023/08/16 03:11:29;;;;;;;11.77;10.13;;;13.80;99.90;;;;;;5025024;28;20056;-58
2023/08/16 03:13:55;;;;;;;12.18;9.70;;;13.90;99.90;;;;;;5024570;28;20041;-57
2023/08/16 03:16:21;;;;;;;14.35;10.90;;;14.00;99.90;;;;;;5024635;28;20056;-58
2023/08/16 03:18:46;;;;;;;13.90;10.60;;;14.10;99.90;;;;;;5024783;28;20162;-59
2023/08/16 03:21:12;;;;;;;15.35;10.93;;;14.10;99.90;;;;;;5024390;28;20136;-58
2023/08/16 03:23:37;;;;;;;12.75;11.20;;;14.00;99.90;;;;;;5006115;28;20042;-58
2023/08/16 03:26:03;;;;;;;14.23;11.23;;;14.70;99.90;;;;;;5004847;28;20104;-58
2023/08/16 03:28:28;;;;;;;14.05;11.15;;;13.90;99.90;;;;;;5004904;28;20046;-58
2023/08/16 03:30:54;;;;;;;13.98;11.00;;;14.00;99.90;;;;;;5004890;28;20078;-59
2023/08/16 03:33:20;;;;;;;16.95;11.35;;;13.90;99.90;;;;;;5005119;28;20046;-58
2023/08/16 03:35:45;;;;;;;15.18;11.18;;;14.00;99.90;;;;;;5021270;28;20432;-58
2023/08/16 03:38:11;;;;;;;13.80;11.25;;;14.10;99.90;;;;;;5026042;28;20088;-60
2023/08/16 03:40:36;;;;;;;13.20;10.38;;;14.10;99.90;;;;;;5028542;28;20076;-58
2023/08/16 03:43:02;;;;;;;11.55;10.07;;;14.10;99.90;;;;;;5028583;28;20073;-59
2023/08/16 03:45:28;;;;;;;16.63;10.63;;;14.20;99.90;;;;;;5027294;28;20053;-58
2023/08/16 03:47:55;;;;;;;14.80;9.95;;;14.30;99.90;;;;;;5028017;28;20060;-58
2023/08/16 03:50:21;;;;;;;14.70;10.80;;;14.30;99.90;;;;;;5028339;28;20050;-59
2023/08/16 03:52:46;;;;;;;13.13;10.38;;;14.40;99.90;;;;;;5027249;28;20399;-59
2023/08/16 03:55:12;;;;;;;18.73;11.48;;;14.40;99.90;;;;;;5008280;28;20129;-59
2023/08/16 03:57:38;;;;;;;14.98;10.77;;;14.80;99.90;;;;;;5008101;28;20042;-58
2023/08/16 04:00:08;;;;;;;16.00;10.40;;;14.50;99.90;;;;;;5008538;28;20491;-57
2023/08/16 04:02:33;;;;;;;13.40;10.32;;;14.40;99.90;;;;;;5008628;28;20045;-59
2023/08/16 04:05:08;;;;;;;12.57;9.88;;;14.40;99.90;;;;;;5008017;28;20384;-59
2023/08/16 04:07:34;;;;;;;11.65;9.80;;;14.50;99.90;;;;;;5007125;28;20128;-59
2023/08/16 04:10:00;;;;;;;16.77;10.23;;;14.50;99.90;;;;;;5008758;28;20573;-58
2023/08/16 04:12:25;;;;;;;11.60;9.20;;;14.60;99.90;;;;;;5006173;28;20100;-59
2023/08/16 04:14:51;;;;;;;13.02;9.95;;;14.70;99.90;;;;;;5008185;28;20038;-57
2023/08/16 04:17:16;;;;;;;12.88;9.98;;;14.60;99.90;;;;;;5008123;28;20370;-59
2023/08/16 04:19:42;;;;;;;18.67;11.07;;;14.50;99.90;;;;;;5012088;28;20053;-59
2023/08/16 04:22:08;;;;;;;14.13;10.13;;;14.50;99.90;;;;;;5026252;28;20049;-58
2023/08/16 04:24:33;;;;;;;13.57;10.32;;;14.50;99.90;;;;;;5027637;28;20056;-58
2023/08/16 04:26:59;;;;;;;13.15;10.65;;;14.50;99.90;;;;;;5027628;28;20037;-58
2023/08/16 04:29:24;;;;;;;14.60;9.65;;;14.50;99.90;;;;;;5027258;28;20037;-58
2023/08/16 04:31:50;;;;;;;13.25;9.40;;;14.60;99.90;;;;;;5027368;28;20060;-58
2023/08/16 04:34:15;;;;;;;12.50;9.68;;;14.90;99.90;;;;;;5027285;28;20060;-58
2023/08/16 04:36:41;;;;;;;15.68;9.77;;;14.70;99.90;;;;;;5027373;28;20045;-58
2023/08/16 04:39:08;;;;;;;13.30;10.48;;;14.70;99.90;;;;;;5026017;28;20041;-58
2023/08/16 04:41:33;;;;;;;11.57;9.30;;;14.70;99.90;;;;;;5007774;28;20054;-58
2023/08/16 04:43:59;;;;;;;13.30;9.13;;;14.70;99.90;;;;;;5006088;28;20443;-58
2023/08/16 04:46:24;;;;;;;13.15;10.10;;;14.70;99.90;;;;;;5005672;28;20145;-58
2023/08/16 04:48:50;;;;;;;13.52;10.43;;;14.70;99.90;;;;;;5007555;28;20139;-58
2023/08/16 04:51:17;;;;;;;15.82;11.07;;;14.80;99.90;;;;;;5007508;28;20404;-59
2023/08/16 04:53:44;;;;;;;16.60;10.95;;;14.80;99.90;;;;;;5006014;28;20054;-58
2023/08/16 04:56:09;;;;;;;15.27;9.40;;;14.80;99.90;;;;;;5006539;28;20377;-59
2023/08/16 04:58:35;;;;;;;13.40;10.18;;;14.80;99.90;;;;;;5006064;28;20064;-59
2023/08/16 05:01:00;;;;;;;14.55;10.38;;;14.70;99.90;;;;;;5007187;28;20112;-58
2023/08/16 05:03:26;;;;;;;12.30;10.15;;;14.80;99.90;;;;;;4989231;28;20233;-59
2023/08/16 05:06:10;;;;;;;14.55;11.35;;;14.80;99.90;;;;;;5006842;28;20695;-59
2023/08/16 05:08:35;;;;;;;14.23;11.30;;;15.10;99.90;;;;;;5005940;28;20073;-58
2023/08/16 05:11:01;;;;;;;14.52;10.95;;;15.60;99.90;;;;;;5022084;28;20045;-59
2023/08/16 05:13:27;;;;;;;10.85;9.02;;;16.10;99.90;;;;;;5027234;28;20040;-58
2023/08/16 05:15:52;;;;;;;13.55;9.35;;;16.50;99.90;;;;;;5025351;28;20049;-59
2023/08/16 05:18:18;;;;;;;10.98;9.43;;;16.90;99.90;;;;;;5026392;28;20049;-59
2023/08/16 05:20:43;;;;;;;10.55;9.35;;;17.00;99.90;;;;;;5027679;28;20128;-58
2023/08/16 05:23:09;;;;;;;14.45;9.38;;;17.10;99.90;;;;;;5025877;28;20050;-58
2023/08/16 05:25:37;;;;;;;14.55;9.48;;;17.30;99.90;;;;;;5026508;28;20132;-58
2023/08/16 05:28:03;;;;;;;11.15;9.20;;;17.30;99.90;;;;;;5026908;28;20061;-58
2023/08/16 05:30:29;;;;;;;14.40;9.45;;;17.20;99.90;;;;;;5026423;28;20651;-58
2023/08/16 05:32:55;;;;;;;11.90;8.98;;;17.10;99.90;;;;;;5024896;28;20099;-58
2023/08/16 05:35:21;;;;;;;12.50;9.40;;;16.90;99.90;;;;;;5025707;28;20063;-58
2023/08/16 05:37:48;;;;;;;15.02;8.70;;;17.10;99.90;;;;;;5025716;28;20427;-60
2023/08/16 05:40:14;;;;;;;12.27;9.07;;;17.50;99.90;;;;;;5026828;28;20038;-59
2023/08/16 05:42:40;;;;;;;11.95;9.43;;;17.90;99.90;;;;;;5025611;28;20049;-59
2023/08/16 05:45:06;;;;;;;10.98;8.10;;;18.40;99.90;;;;;;5041076;28;20071;-58
2023/08/16 05:47:32;;;;;;;11.35;8.35;;;18.80;99.90;;;;;;5024499;28;20053;-58
2023/08/16 05:49:59;;;;;;;10.40;7.05;;;19.30;99.90;;;;;;5026225;28;20103;-58
2023/08/16 05:52:25;;;;;;;9.43;6.50;;;19.70;99.90;;;;;;5024733;28;20053;-57
2023/08/16 05:54:51;;;;;;;10.88;7.28;;;20.20;99.90;;;;;;5025968;28;20588;-58
2023/08/16 05:57:16;;;;;;;8.95;7.18;;;20.70;99.90;;;;;;5005474;28;20081;-58
2023/08/16 05:59:42;;;;;;;9.40;7.30;;;21.00;99.90;;;;;;5013261;28;20041;-58
2023/08/16 06:02:08;;;;;;;10.57;6.50;;;21.20;99.90;;;;;;5006003;28;20033;-58
2023/08/16 06:04:34;;;;;;;10.23;7.22;;;21.50;99.90;;;;;;5016671;28;20087;-58
2023/08/16 06:07:00;;;;;;;11.00;6.97;;;21.60;99.90;;;;;;5011820;28;20050;-59
2023/08/16 06:09:26;;;;;;;9.52;6.68;;;21.60;99.90;;;;;;5019693;28;20057;-59
2023/08/16 06:11:51;;;;;;;10.57;7.03;;;21.80;99.90;;;;;;5025183;28;20068;-59
2023/08/16 06:14:17;;;;;;;8.40;6.55;;;21.70;99.90;;;;;;5025722;28;20130;-59
2023/08/16 06:16:44;;;;;;;8.10;7.05;;;21.80;99.90;;;;;;5023562;28;20053;-58
2023/08/16 06:19:10;;;;;;;9.23;6.40;;;22.00;99.90;;;;;;5025722;28;20128;-59
2023/08/16 06:21:36;;;;;;;9.52;6.57;;;22.40;99.90;;;;;;5023800;28;20068;-58
2023/08/16 06:24:04;;;;;;;8.40;6.20;;;22.40;99.90;;;;;;5024235;28;20056;-58
2023/08/16 06:26:29;;;;;;;8.00;6.07;;;22.50;99.90;;;;;;5025585;28;20041;-59
2023/08/16 06:28:55;;;;;;;10.30;5.85;;;22.70;99.90;;;;;;5025383;28;20054;-59
2023/08/16 06:31:20;;;;;;;6.93;5.40;;;22.80;99.90;;;;;;5025228;28;20037;-58
2023/08/16 06:33:46;;;;;;;8.88;5.45;;;23.10;99.90;;;;;;5024906;28;20048;-59
2023/08/16 06:36:13;;;;;;;13.35;5.47;;;23.20;99.90;;;;;;5025327;28;20041;-59
2023/08/16 06:38:38;;;;;;;10.15;5.53;;;23.10;99.90;;;;;;5005938;28;20061;-59
2023/08/16 06:41:04;;;;;;;7.13;5.03;;;22.90;99.90;;;;;;5004987;28;20054;-58
2023/08/16 06:43:29;;;;;;;8.32;4.80;;;22.90;99.90;;;;;;5005848;28;20053;-59
2023/08/16 06:45:56;;;;;;;7.93;4.50;;;22.80;99.90;;;;;;5013415;28;20045;-59
2023/08/16 06:48:22;;;;;;;9.63;5.05;;;22.50;99.90;;;;;;5009470;28;20046;-58
2023/08/16 06:50:48;;;;;;;12.77;5.55;;;22.40;99.90;;;;;;5031403;28;20045;-59
2023/08/16 06:53:14;;;;;;;8.80;5.18;;;22.20;99.90;;;;;;5004822;28;20072;-59
2023/08/16 06:55:40;;;;;;;10.30;4.93;;;22.00;99.90;;;;;;5004719;28;20720;-59
2023/08/16 06:58:06;;;;;;;8.38;4.60;;;22.10;99.90;;;;;;5004871;28;20053;-59
2023/08/16 07:00:32;;;;;;;9.15;4.30;;;22.10;99.90;;;;;;5004951;28;20120;-59
2023/08/16 07:02:58;;;;;;;7.72;4.10;;;22.10;99.90;;;;;;5005119;28;20473;-59
2023/08/16 07:05:26;;;;;;;7.43;3.92;;;22.20;99.90;;;;;;5005257;28;20049;-60
2023/08/16 07:07:53;;;;;;;5.93;3.83;;;22.40;99.90;;;;;;5003864;28;20133;-60
2023/08/16 07:10:19;;;;;;;7.00;3.80;;;22.50;99.90;;;;;;5004677;28;20061;-58
2023/08/16 07:12:45;;;;;;;7.90;3.60;;;22.30;99.90;;;;;;5004540;28;20046;-59
2023/08/16 07:15:11;;;;;;;7.20;3.90;;;22.40;99.90;;;;;;5004899;28;20065;-59
2023/08/16 07:17:38;;;;;;;7.65;3.47;;;22.40;99.90;;;;;;5028735;28;20037;-59
2023/08/16 07:20:07;;;;;;;6.72;3.88;;;22.20;99.90;;;;;;5014841;28;20038;-59
2023/08/16 07:22:34;;;;;;;6.97;3.50;;;21.80;99.90;;;;;;5012512;28;20049;-59
2023/08/16 07:24:59;;;;;;;6.10;3.88;;;21.50;99.90;;;;;;5016026;28;20139;-59
2023/08/16 07:27:25;;;;;;;8.38;3.78;;;21.40;99.90;;;;;;5014472;28;20076;-59
2023/08/16 07:29:50;;;;;;;8.05;2.47;;;21.10;99.90;;;;;;5013511;28;20068;-59
2023/08/16 07:32:16;;;;;;;7.65;2.47;;;21.00;99.90;;;;;;5023165;28;20388;-59
2023/08/16 07:34:43;;;;;;;5.75;2.30;;;20.90;99.90;;;;;;5025012;28;20041;-59
2023/08/16 07:37:10;;;;;;;5.72;2.40;;;20.80;99.90;;;;;;5023061;28;20041;-59
2023/08/16 07:39:36;;;;;;;5.78;2.20;;;20.70;99.90;;;;;;5014547;28;20419;-59
2023/08/16 07:42:01;;;;;;;5.35;2.25;;;20.80;99.90;;;;;;5013745;28;20041;-59
2023/08/16 07:44:27;;;;;;;4.57;2.15;;;20.70;99.90;;;;;;5011580;28;20058;-58
2023/08/16 07:46:53;;;;;;;5.80;1.88;;;20.70;99.90;;;;;;5024252;28;20115;-59
2023/08/16 07:49:18;;;;;;;4.03;1.85;;;20.70;99.90;;;;;;5024025;28;20399;-58
2023/08/16 07:51:45;;;;;;;5.05;1.90;;;20.60;99.90;;;;;;5024031;28;20131;-59
2023/08/16 07:54:11;;;;;;;5.35;2.10;;;20.60;99.90;;;;;;5024811;28;20049;-59
2023/08/16 07:56:37;;;;;;;4.82;1.90;;;20.90;99.90;;;;;;5008204;28;20054;-58
2023/08/16 07:59:02;;;;;;;5.45;2.58;;;21.20;99.90;;;;;;5004652;28;20088;-58
2023/08/16 08:01:28;;;;;;;4.47;2.85;;;21.20;99.90;;;;;;5006528;28;20132;-58
2023/08/16 08:03:54;;;;;;;6.03;2.50;;;21.10;99.90;;;;;;5014510;28;20046;-59
2023/08/16 08:06:19;;;;;;;8.48;3.70;;;21.50;99.90;;;;;;5014815;28;20049;-59
2023/08/16 08:08:45;;;;;;;6.47;2.85;;;22.10;99.90;;;;;;5014989;28;20045;-59
2023/08/16 08:11:11;;;;;;;5.72;2.50;;;22.50;99.90;;;;;;5018302;28;20512;-58
2023/08/16 08:13:37;;;;;;;5.38;3.08;;;22.60;99.90;;;;;;5022863;28;20048;-59
2023/08/16 08:16:03;;;;;;;7.20;2.78;;;23.00;99.90;;;;;;5013664;28;20060;-59
2023/08/16 08:18:29;;;;;;;5.45;2.70;;;23.30;99.90;;;;;;5013853;28;20630;-58
2023/08/16 08:20:55;;;;;;;6.18;2.67;;;23.30;99.90;;;;;;5005928;28;20121;-60
2023/08/16 08:23:21;;;;;;;6.63;3.00;;;23.00;99.90;;;;;;5014664;28;20046;-58
2023/08/16 08:25:47;;;;;;;7.57;2.90;;;22.80;99.90;;;;;;5014449;28;20041;-58
2023/08/16 08:28:13;;;;;;;3.85;2.30;;;22.50;99.90;;;;;;5027778;28;20408;-58
2023/08/16 08:30:41;;;;;;;4.30;2.65;;;22.50;99.90;;;;;;5026093;28;20423;-58
2023/08/16 08:33:07;;;;;;;7.07;2.60;;;22.70;99.90;;;;;;5028088;28;20057;-59
2023/08/16 08:35:33;;;;;;;4.60;2.45;;;22.50;99.90;;;;;;5026127;28;20053;-60
2023/08/16 08:37:59;;;;;;;7.75;2.28;;;22.40;99.90;;;;;;5026728;28;20041;-58
2023/08/16 08:40:25;;;;;;;5.43;3.00;;;22.20;99.90;;;;;;5027680;28;20136;-58
2023/08/16 08:42:51;;;;;;;5.05;2.88;;;22.20;99.90;;;;;;5027859;28;20053;-58
2023/08/16 08:45:17;;;;;;;6.18;2.90;;;22.10;99.90;;;;;;5027734;28;20049;-58
2023/08/16 08:47:47;;;;;;;8.93;3.17;;;22.00;99.90;;;;;;5025897;28;20506;-59
2023/08/16 08:50:13;;;;;;;6.95;3.03;;;21.80;99.90;;;;;;5013304;28;20069;-59
2023/08/16 08:52:38;;;;;;;7.18;2.80;;;21.60;99.90;;;;;;5006717;28;20565;-58
2023/08/16 08:55:04;;;;;;;5.13;2.13;;;21.40;99.90;;;;;;5006375;28;20452;-58
2023/08/16 08:57:32;;;;;;;5.72;2.42;;;21.10;99.90;;;;;;5022201;28;20128;-58
2023/08/16 08:59:59;;;;;;;5.47;2.00;;;21.10;99.90;;;;;;5007389;28;20042;-61
2023/08/16 09:02:29;;;;;;;6.57;2.20;;;21.30;99.90;;;;;;5012745;28;20049;-58
2023/08/16 09:04:58;;;;;;;7.07;2.40;;;21.60;99.90;;;;;;5012080;28;20060;-58
2023/08/16 09:07:25;;;;;;;4.18;1.33;;;22.20;99.90;;;;;;5004813;28;20064;-58
2023/08/16 09:09:53;;;;;;;6.40;1.58;;;22.70;99.90;;;;;;5007716;28;20050;-59
2023/08/16 09:12:19;;;;;;;6.20;2.80;;;23.20;99.90;;;;;;5000133;28;20385;-59
2023/08/16 09:14:45;;;;;;;3.83;1.30;;;23.60;99.90;;;;;;4997009;28;20065;-59
2023/08/16 09:17:11;;;;;;;4.10;1.33;;;23.90;99.90;;;;;;5002163;28;20370;-58
2023/08/16 09:19:44;;;;;;;3.67;1.40;;;24.00;99.90;;;;;;5011308;28;20124;-58
2023/08/16 09:22:11;;;;;;;4.97;1.30;;;23.90;99.80;;;;;;4997316;28;20053;-58
2023/08/16 09:24:37;;;;;;;3.63;1.40;;;24.10;99.90;;;;;;5001159;28;20049;-59
2023/08/16 09:27:03;;;;;;;2.53;1.05;;;24.30;99.90;;;;;;5006226;28;20091;-59
2023/08/16 09:29:30;;;;;;;2.80;1.20;;;24.70;99.80;;;;;;5014075;28;20415;-60
2023/08/16 09:31:56;;;;;;;4.00;1.17;;;25.00;99.30;;;;;;5041576;28;20468;-60
2023/08/16 09:34:24;;;;;;;4.05;1.33;;;25.10;98.90;;;;;;5025856;28;20040;-60
2023/08/16 09:36:49;;;;;;;2.00;1.05;;;25.30;98.70;;;;;;5025841;28;20107;-60
2023/08/16 09:39:15;;;;;;;2.50;1.00;;;25.20;97.90;;;;;;5026505;28;20038;-59
2023/08/16 09:41:50;;;;;;;4.00;1.45;;;25.00;97.50;;;;;;5024444;28;20133;-60
2023/08/16 09:44:17;;;;;;;3.65;1.30;;;25.00;97.40;;;;;;5026762;28;20092;-60
2023/08/16 09:46:43;;;;;;;3.90;1.38;;;25.20;98.00;;;;;;5026621;28;20057;-59
2023/08/16 09:49:12;;;;;;;4.20;1.10;;;25.40;97.80;;;;;;5026179;28;20689;-60
2023/08/16 09:51:41;;;;;;;5.00;1.58;;;25.40;97.60;;;;;;5025735;28;20053;-60
2023/08/16 09:54:14;;;;;;;4.63;1.33;;;25.40;97.30;;;;;;5026417;28;20053;-60
2023/08/16 09:56:41;;;;;;;3.57;1.37;;;25.20;96.60;;;;;;5010271;28;20054;-60
2023/08/16 09:59:08;;;;;;;4.55;1.20;;;25.10;97.50;;;;;;5005648;28;20057;-60
2023/08/16 10:01:35;;;;;;;7.78;1.45;;;25.10;98.00;;;;;;5005479;28;20619;-62
2023/08/16 10:04:02;;;;;;;2.85;1.15;;;25.30;97.90;;;;;;5005321;28;20038;-61
2023/08/16 10:06:30;;;;;;;5.53;1.38;;;25.50;97.30;;;;;;5006382;28;20042;-60
2023/08/16 10:08:56;;;;;;;2.80;1.08;;;25.80;97.20;;;;;;5007223;28;20133;-61
2023/08/16 10:11:23;;;;;;;4.43;1.10;;;26.00;97.10;;;;;;5006417;28;20057;-61
2023/08/16 10:13:49;;;;;;;2.65;1.20;;;26.30;97.10;;;;;;5026057;28;20037;-60
2023/08/16 10:16:15;;;;;;;4.47;1.10;;;26.40;96.80;;;;;;5025646;28;20084;-60
2023/08/16 10:18:46;;;;;;;2.58;0.80;;;26.50;96.60;;;;;;5005103;28;20045;-61
2023/08/16 10:21:18;;;;;;;2.72;1.10;;;26.60;95.60;;;;;;5004707;28;20528;-64
2023/08/16 10:23:44;;;;;;;2.88;1.02;;;26.40;95.80;;;;;;5010901;28;20055;-60
2023/08/16 10:26:15;;;;;;;3.15;1.05;;;26.20;95.90;;;;;;5024371;28;20045;-60
2023/08/16 10:28:49;;;;;;;4.35;1.30;;;26.20;95.30;;;;;;5006710;28;20049;-60
2023/08/16 10:31:20;;;;;;;4.07;1.15;;;26.20;95.60;;;;;;5024968;28;20040;-60
2023/08/16 10:33:49;;;;;;;5.20;1.13;;;26.40;96.10;;;;;;5024105;28;20431;-60
2023/08/16 10:36:16;;;;;;;3.50;0.80;;;26.60;96.10;;;;;;5022713;28;20045;-59
2023/08/16 10:38:42;;;;;;;3.40;1.08;;;26.60;95.70;;;;;;5025244;28;20057;-60
2023/08/16 10:41:15;;;;;;;2.38;0.80;;;26.80;95.30;;;;;;5024430;28;20518;-60
2023/08/16 10:43:48;;;;;;;1.73;0.90;;;27.00;94.70;;;;;;5024941;28;20041;-60
2023/08/16 10:46:26;;;;;;;3.95;0.90;;;27.10;94.50;;;;;;5025792;28;20049;-60
2023/08/16 10:48:59;;;;;;;3.13;0.93;;;27.20;94.00;;;;;;5025218;28;20124;-60
2023/08/16 10:51:25;;;;;;;3.63;1.00;;;27.30;93.80;;;;;;5024389;28;20038;-60
2023/08/16 10:53:50;;;;;;;2.25;0.70;;;27.40;94.80;;;;;;5025189;28;20072;-59
2023/08/16 10:56:19;;;;;;;2.38;0.80;;;27.50;94.40;;;;;;5013345;28;20042;-60
2023/08/16 10:58:49;;;;;;;3.92;0.93;;;27.70;94.20;;;;;;5004338;28;20053;-60
2023/08/16 11:01:16;;;;;;;4.07;0.98;;;27.60;93.10;;;;;;5005560;28;20053;-60
2023/08/16 11:03:43;;;;;;;4.65;1.00;;;27.70;94.00;;;;;;5005417;28;20554;-60
2023/08/16 11:06:14;;;;;;;3.00;1.20;;;27.70;93.80;;;;;;5003092;28;20054;-60
2023/08/16 11:08:44;;;;;;;2.90;0.98;;;27.80;93.40;;;;;;5004856;28;20181;-60
2023/08/16 11:11:11;;;;;;;1.42;0.70;;;27.80;93.70;;;;;;5005285;28;20053;-58
2023/08/16 11:13:40;;;;;;;2.80;0.70;;;27.80;93.60;;;;;;5005212;28;20477;-60
2023/08/16 11:16:09;;;;;;;3.17;1.00;;;28.00;93.30;;;;;;5004693;28;20515;-59
2023/08/16 11:18:36;;;;;;;2.20;0.60;;;27.90;92.70;;;;;;5004964;28;20045;-59
2023/08/16 11:21:03;;;;;;;2.75;0.68;;;27.90;93.10;;;;;;5004961;28;20188;-60
2023/08/16 11:23:39;;;;;;;1.92;0.98;;;27.90;93.10;;;;;;5005804;28;20046;-60
2023/08/16 11:26:06;;;;;;;3.60;0.80;;;27.90;92.60;;;;;;5005347;28;20056;-60
2023/08/16 11:28:33;;;;;;;1.80;0.63;;;27.90;93.00;;;;;;5005538;28;20052;-60
2023/08/16 11:31:07;;;;;;;2.22;0.88;;;27.80;92.80;;;;;;5004332;28;20064;-60
2023/08/16 11:33:40;;;;;;;2.83;0.90;;;27.80;92.60;;;;;;5005755;28;20042;-60
2023/08/16 11:36:08;;;;;;;2.75;0.90;;;28.00;92.70;;;;;;5019222;28;20053;-59
2023/08/16 11:38:34;;;;;;;3.88;1.10;;;28.20;92.50;;;;;;5004908;28;20057;-59
2023/08/16 11:41:01;;;;;;;2.33;0.70;;;28.40;92.50;;;;;;5005639;28;20053;-60
2023/08/16 11:43:31;;;;;;;2.15;0.90;;;28.40;92.30;;;;;;5004937;28;20137;-60
2023/08/16 11:45:57;;;;;;;3.60;0.90;;;28.40;91.60;;;;;;5004207;28;20133;-60
2023/08/16 11:48:25;;;;;;;1.75;0.80;;;28.30;92.30;;;;;;5003434;28;20100;-59
2023/08/16 11:50:51;;;;;;;6.43;1.00;;;28.30;92.20;;;;;;5005049;28;20107;-61
2023/08/16 11:53:17;;;;;;;4.15;0.73;;;28.20;92.20;;;;;;5005185;28;20392;-60
2023/08/16 11:55:58;;;;;;;4.00;1.00;;;28.10;91.90;;;;;;5004706;28;20719;-59
2023/08/16 11:58:24;;;;;;;3.38;0.95;;;28.00;92.30;;;;;;5000592;28;20425;-60
2023/08/16 12:00:51;;;;;;;3.47;0.73;;;28.00;92.70;;;;;;5008510;28;20128;-59
2023/08/16 12:03:17;;;;;;;1.52;0.70;;;27.90;92.20;;;;;;5008781;28;20107;-60
2023/08/16 12:05:46;;;;;;;2.92;0.68;;;27.90;92.20;;;;;;5008696;28;20508;-60
2023/08/16 12:08:13;;;;;;;4.07;0.90;;;27.90;92.10;;;;;;5007479;28;20062;-60
2023/08/16 12:10:40;;;;;;;2.90;0.70;;;28.00;92.10;;;;;;5008468;28;20667;-60
2023/08/16 12:13:13;;;;;;;3.03;0.70;;;28.10;92.00;;;;;;5009395;28;20495;-60
2023/08/16 12:15:39;;;;;;;4.00;1.05;;;28.00;91.60;;;;;;5007939;28;20034;-59
2023/08/16 12:18:05;;;;;;;2.40;0.98;;;28.10;92.00;;;;;;5008676;28;20044;-60
2023/08/16 12:20:31;;;;;;;3.38;1.00;;;28.10;91.90;;;;;;5008292;28;20050;-60
2023/08/16 12:22:58;;;;;;;3.17;0.65;;;28.10;91.80;;;;;;5006102;28;20834;-59
2023/08/16 12:25:24;;;;;;;1.67;0.70;;;28.10;91.70;;;;;;5009328;28;20392;-58
2023/08/16 12:27:50;;;;;;;2.05;0.90;;;28.10;91.70;;;;;;5008899;28;20050;-57
2023/08/16 12:30:16;;;;;;;4.85;0.80;;;28.00;91.80;;;;;;5008399;28;20076;-58
2023/08/16 12:32:41;;;;;;;2.22;0.80;;;28.00;91.70;;;;;;5007654;28;20085;-60
2023/08/16 12:35:08;;;;;;;2.72;0.93;;;28.00;91.60;;;;;;5008445;28;20042;-58
2023/08/16 12:37:35;;;;;;;1.80;0.60;;;28.00;91.40;;;;;;5007262;28;20049;-57
2023/08/16 12:40:00;;;;;;;2.53;0.85;;;27.90;91.70;;;;;;5005653;28;20129;-60